Time;durP1;ratioP1;P1;durP2;ratioP2;P2;SDS_P1;SDS_P2;PMS_P1;PMS_P2;Temp;Humidity;BMP_temperature;BMP_pressure;BME280_temperature;BME280_humidity;BME280_pressure;Samples;Min_cycle;Max_cycle;Signal;HPM_P1;HPM_P2
2022/05/26 00:01:49;;;;;;;;;2.33;1.00;;;;;18.42;100.00;101937.47;4971807;28;63360;-76
2022/05/26 00:04:15;;;;;;;;;2.00;2.00;;;;;18.36;100.00;101942.84;4982202;28;45505;-76
2022/05/26 00:06:40;;;;;;;;;2.00;1.00;;;;;18.28;100.00;101946.44;4980224;28;45275;-77
2022/05/26 00:09:06;;;;;;;;;6.00;1.00;;;;;18.27;100.00;101942.00;4975553;28;45438;-78
2022/05/26 00:11:34;;;;;;;;;3.00;1.00;;;;;18.27;100.00;101941.13;4979351;28;47847;-77
2022/05/26 00:14:07;;;;;;;;;3.67;1.00;;;;;18.25;100.00;101941.09;4978793;28;45330;-76
2022/05/26 00:16:32;;;;;;;;;1.00;1.00;;;;;18.23;100.00;101948.25;4979164;28;45293;-77
2022/05/26 00:18:58;;;;;;;;;1.33;1.00;;;;;18.21;100.00;101951.81;4978870;28;45507;-78
2022/05/26 00:21:23;;;;;;;;;3.00;1.67;;;;;18.19;100.00;101946.47;4977717;28;60841;-76
2022/05/26 00:23:48;;;;;;;;;1.33;1.00;;;;;18.14;100.00;101950.94;4978947;28;45297;-78
2022/05/26 00:26:14;;;;;;;;;2.67;1.00;;;;;18.09;100.00;101951.84;4974300;28;45250;-76
2022/05/26 00:28:39;;;;;;;;;1.00;1.00;;;;;18.03;100.00;101948.28;4978523;28;54485;-77
2022/05/26 00:31:05;;;;;;;;;1.00;1.00;;;;;18.01;100.00;101946.53;4982289;28;60588;-76
2022/05/26 00:33:30;;;;;;;;;0.67;0.67;;;;;17.99;100.00;101950.97;4986240;28;45293;-77
2022/05/26 00:36:01;;;;;;;;;1.67;1.00;;;;;17.97;100.00;101952.75;4985110;28;45563;-76
2022/05/26 00:38:27;;;;;;;;;1.00;1.00;;;;;17.98;100.00;101958.09;4978304;28;45564;-76
2022/05/26 00:41:00;;;;;;;;;0.00;0.00;;;;;17.97;100.00;101956.31;4984064;28;62300;-77
2022/05/26 00:43:26;;;;;;;;;1.00;1.00;;;;;18.00;100.00;101955.41;4978835;28;45576;-76
2022/05/26 00:45:57;;;;;;;;;1.00;1.00;;;;;18.01;100.00;101952.75;4977997;28;56721;-76
2022/05/26 00:48:25;;;;;;;;;0.67;0.67;;;;;18.02;100.00;101954.53;4960588;28;45461;-76
2022/05/26 00:50:54;;;;;;;;;1.00;1.00;;;;;18.02;100.00;101961.66;4968160;28;46638;-77
2022/05/26 00:53:32;;;;;;;;;0.33;0.33;;;;;18.00;100.00;101955.41;4987646;28;45447;-76
2022/05/26 00:56:07;;;;;;;;;0.00;0.00;;;;;18.01;100.00;101970.56;4988260;28;45472;-77
2022/05/26 00:58:36;;;;;;;;;2.00;1.00;;;;;17.98;100.00;101965.22;4978016;28;45419;-76
2022/05/26 01:01:02;;;;;;;;;1.00;1.00;;;;;17.97;100.00;101963.44;4981859;28;47399;-77
2022/05/26 01:03:38;;;;;;;;;2.00;1.00;;;;;17.96;100.00;101969.69;4965469;28;45517;-75
2022/05/26 01:06:30;;;;;;;;;1.67;0.67;;;;;17.98;100.00;101978.59;4962703;28;45383;-76
2022/05/26 01:09:01;;;;;;;;;3.00;0.00;;;;;17.97;100.00;101971.47;4973728;28;45336;-77
2022/05/26 01:11:29;;;;;;;;;1.00;1.00;;;;;17.96;100.00;101975.94;4982978;28;47794;-76
2022/05/26 01:14:11;;;;;;;;;3.00;1.00;;;;;17.91;100.00;101987.50;4975425;28;45365;-77
2022/05/26 01:16:55;;;;;;;;;0.00;0.00;;;;;17.85;100.00;101982.19;4978536;28;45156;-77
2022/05/26 01:19:23;;;;;;;;;0.00;0.00;;;;;17.85;100.00;101971.50;4977159;28;45227;-76
2022/05/26 01:21:55;;;;;;;;;0.00;0.00;;;;;17.82;100.00;101974.16;4990495;28;46439;-76
2022/05/26 01:24:41;;;;;;;;;1.00;1.00;;;;;17.75;100.00;101976.81;4976536;28;45333;-77
2022/05/26 01:27:16;;;;;;;;;4.33;0.67;;;;;17.72;100.00;101975.88;4976456;28;45267;-77
2022/05/26 01:29:53;;;;;;;;;0.00;0.00;;;;;17.72;100.00;101981.22;4982108;28;45168;-76
2022/05/26 01:32:36;;;;;;;;;1.00;1.00;;;;;17.69;100.00;101990.16;4964291;28;46612;-75
2022/05/26 01:35:28;;;;;;;;;2.67;0.33;;;;;17.64;100.00;101991.03;4989027;28;45485;-77
2022/05/26 01:38:17;;;;;;;;;2.00;0.00;;;;;17.55;100.00;101986.56;4977847;28;45410;-76
2022/05/26 01:41:01;;;;;;;;;2.00;1.00;;;;;17.56;100.00;101977.66;4982001;28;45605;-76
2022/05/26 01:43:44;;;;;;;;;1.00;1.00;;;;;17.55;100.00;101981.22;4987916;28;47490;-76
2022/05/26 01:46:23;;;;;;;;;1.33;1.00;;;;;17.54;100.00;101982.13;4986886;28;45485;-76
2022/05/26 01:48:52;;;;;;;;;0.67;0.33;;;;;17.55;100.00;101978.56;4977954;28;45580;-77
2022/05/26 01:51:18;;;;;;;;;2.00;1.00;;;;;17.55;100.00;101971.44;4967859;28;45554;-77
2022/05/26 01:53:43;;;;;;;;;1.67;1.33;;;;;17.59;100.00;101982.13;4984803;28;45924;-78
2022/05/26 01:56:27;;;;;;;;;1.00;1.00;;;;;17.60;100.00;101979.47;4977410;28;45299;-76
2022/05/26 01:58:59;;;;;;;;;2.00;1.33;;;;;17.65;100.00;101979.47;4981682;28;45429;-77
2022/05/26 02:01:28;;;;;;;;;2.00;1.00;;;;;17.67;100.00;101983.91;4991418;28;45341;-76
2022/05/26 02:03:55;;;;;;;;;1.00;1.00;;;;;17.73;100.00;101983.03;4975864;28;46687;-77
2022/05/26 02:06:31;;;;;;;;;2.00;0.67;;;;;17.77;100.00;101987.50;4959272;28;54339;-77
2022/05/26 02:09:03;;;;;;;;;2.00;2.00;;;;;17.80;100.00;101983.06;4960798;28;45507;-76
2022/05/26 02:11:28;;;;;;;;;4.00;1.00;;;;;17.85;100.00;101984.84;4965667;28;45379;-76
2022/05/26 02:13:58;;;;;;;;;1.67;1.00;;;;;17.86;100.00;101982.16;4972246;28;45721;-78
2022/05/26 02:16:38;;;;;;;;;3.33;1.00;;;;;17.88;100.00;101980.38;4991113;28;45428;-76
2022/05/26 02:19:26;;;;;;;;;2.00;1.00;;;;;17.91;100.00;101982.16;4977190;28;45307;-76
2022/05/26 02:22:01;;;;;;;;;1.00;1.00;;;;;17.92;100.00;101992.84;4982366;28;45302;-76
2022/05/26 02:24:37;;;;;;;;;1.00;1.00;;;;;17.93;100.00;101997.28;4945192;28;46372;-77
2022/05/26 02:27:04;;;;;;;;;0.33;0.33;;;;;17.91;100.00;101995.53;4968647;28;45387;-77
2022/05/26 02:32:15;;;;;;;;;1.67;1.00;;;;;17.87;100.00;101999.97;4977333;28;45225;-78
2022/05/26 02:34:42;;;;;;;;;2.00;0.33;;;;;17.88;100.00;101999.06;4987882;28;46440;-76
2022/05/26 02:37:08;;;;;;;;;0.00;0.00;;;;;17.88;100.00;102003.53;4977042;28;45456;-77
2022/05/26 02:39:34;;;;;;;;;1.00;1.00;;;;;17.86;100.00;101995.53;4959976;28;45483;-77
2022/05/26 02:42:00;;;;;;;;;0.67;0.67;;;;;17.83;100.00;101999.97;4977066;28;45445;-76
2022/05/26 02:44:26;;;;;;;;;2.00;1.00;;;;;17.77;100.00;101998.19;4976745;28;46181;-78
2022/05/26 02:47:19;;;;;;;;;0.00;0.00;;;;;17.75;100.00;101997.31;4964313;28;45473;-76
2022/05/26 02:49:44;;;;;;;;;1.67;1.67;;;;;17.71;100.00;102001.72;4989528;28;45526;-76
2022/05/26 02:52:21;;;;;;;;;2.00;0.33;;;;;17.69;100.00;101998.16;4993862;28;45545;-77
2022/05/26 02:54:59;;;;;;;;;0.67;0.67;;;;;17.68;100.00;101999.03;4986947;28;45927;-78
2022/05/26 02:58:02;;;;;;;;;1.00;1.00;;;;;17.67;100.00;101994.59;4984804;28;45449;-75
2022/05/26 03:00:46;;;;;;;;;0.33;0.33;;;;;17.68;100.00;101996.34;4959418;28;45236;-75
2022/05/26 03:03:20;;;;;;;;;2.00;1.00;;;;;17.68;100.00;101999.03;4976001;28;45497;-76
2022/05/26 03:06:06;;;;;;;;;0.67;0.67;;;;;17.65;100.00;102004.38;4975297;28;46716;-75
2022/05/26 03:08:36;;;;;;;;;1.00;0.33;;;;;17.63;100.00;102000.84;4981626;28;45583;-76
2022/05/26 03:11:43;;;;;;;;;1.00;0.00;;;;;17.61;100.00;101999.03;4977924;28;45412;-76
2022/05/26 03:14:08;;;;;;;;;1.00;1.00;;;;;17.61;100.00;101999.03;4972265;28;45532;-76
2022/05/26 03:16:33;;;;;;;;;0.00;0.00;;;;;17.61;100.00;102005.28;4978808;28;61777;-76
2022/05/26 03:18:59;;;;;;;;;0.33;0.33;;;;;17.59;100.00;102001.72;4970086;28;59868;-76
2022/05/26 03:21:24;;;;;;;;;0.00;0.00;;;;;17.57;100.00;102000.81;4979729;28;45347;-76
2022/05/26 03:23:50;;;;;;;;;0.00;0.00;;;;;17.53;100.00;102007.06;4979224;28;56888;-77
2022/05/26 03:26:16;;;;;;;;;0.00;0.00;;;;;17.48;100.00;102004.38;4979826;28;46352;-76
2022/05/26 03:28:41;;;;;;;;;1.67;1.00;;;;;17.46;100.00;102013.25;4983991;28;45374;-75
2022/05/26 03:31:11;;;;;;;;;0.00;0.00;;;;;17.43;100.00;102000.81;4971545;28;45221;-76
2022/05/26 03:41:49;;;;;;;;;0.00;0.00;;;;;17.37;100.00;102005.25;4980023;28;45327;-77
2022/05/26 03:44:14;;;;;;;;;0.00;0.00;;;;;17.38;100.00;102004.38;4977465;28;45544;-76
2022/05/26 03:46:40;;;;;;;;;1.00;0.00;;;;;17.40;100.00;102015.94;4989784;28;62795;-77
2022/05/26 03:49:05;;;;;;;;;0.00;0.00;;;;;17.42;100.00;102008.84;4985035;28;57632;-77
2022/05/26 03:51:30;;;;;;;;;0.00;0.00;;;;;17.43;100.00;102006.16;4985325;28;45307;-75
2022/05/26 03:53:56;;;;;;;;;0.00;0.00;;;;;17.45;100.00;102015.03;4981714;28;55316;-76
2022/05/26 03:56:21;;;;;;;;;0.00;0.00;;;;;17.47;100.00;102020.38;4986944;28;45739;-77
2022/05/26 03:58:46;;;;;;;;;2.00;1.00;;;;;17.49;100.00;102021.28;4985552;28;45557;-76
2022/05/26 04:01:12;;;;;;;;;4.00;1.00;;;;;17.47;100.00;102023.97;4978422;28;53568;-76
2022/05/26 04:03:37;;;;;;;;;0.00;0.00;;;;;17.46;100.00;102026.63;4979381;28;45232;-76
2022/05/26 04:06:03;;;;;;;;;1.00;0.00;;;;;17.43;100.00;102029.28;4992116;28;62057;-75
2022/05/26 04:08:28;;;;;;;;;1.00;1.00;;;;;17.42;100.00;102024.84;4979995;28;45528;-75
2022/05/26 04:10:54;;;;;;;;;1.67;1.00;;;;;17.43;100.00;102032.84;4991568;28;52040;-75
2022/05/26 04:13:19;;;;;;;;;1.00;1.00;;;;;17.43;100.00;102042.66;4993803;28;45470;-76
2022/05/26 04:15:44;;;;;;;;;4.67;1.00;;;;;17.45;100.00;102038.19;4979731;28;45598;-75
2022/05/26 04:18:10;;;;;;;;;1.00;1.00;;;;;17.45;100.00;102041.75;4978747;28;48362;-76
2022/05/26 04:20:35;;;;;;;;;1.33;1.33;;;;;17.45;100.00;102040.84;4978509;28;45290;-76
2022/05/26 04:23:01;;;;;;;;;1.00;1.00;;;;;17.46;100.00;102043.53;4978195;28;45667;-77
2022/05/26 04:25:26;;;;;;;;;1.67;1.67;;;;;17.45;100.00;102033.75;4991324;28;45726;-76
2022/05/26 04:27:55;;;;;;;;;1.33;1.00;;;;;17.46;100.00;102050.66;4991731;28;45211;-76
2022/05/26 04:30:22;;;;;;;;;1.00;1.00;;;;;17.43;100.00;102042.66;4987721;28;45657;-75
2022/05/26 04:32:47;;;;;;;;;2.00;2.00;;;;;17.38;100.00;102050.66;4975466;28;45774;-76
2022/05/26 04:35:13;;;;;;;;;0.33;0.33;;;;;17.37;100.00;102047.97;4995432;28;64634;-75
2022/05/26 04:37:39;;;;;;;;;1.00;1.00;;;;;17.36;100.00;102055.06;4987368;28;45243;-76
2022/05/26 04:40:05;;;;;;;;;1.33;1.00;;;;;17.36;100.00;102048.84;4986617;28;45509;-75
2022/05/26 04:42:31;;;;;;;;;4.00;1.00;;;;;17.35;100.00;102055.06;4989535;28;45571;-76
2022/05/26 04:44:57;;;;;;;;;1.67;1.67;;;;;17.34;100.00;102058.63;4987178;28;46484;-76
2022/05/26 04:47:22;;;;;;;;;0.67;0.67;;;;;17.32;100.00;102058.66;4984698;28;45779;-77
2022/05/26 04:49:48;;;;;;;;;0.33;0.33;;;;;17.32;100.00;102060.44;4977616;28;51164;-76
2022/05/26 04:52:17;;;;;;;;;3.00;0.00;;;;;17.34;100.00;102056.84;4978252;28;45295;-76
2022/05/26 04:54:43;;;;;;;;;1.00;1.00;;;;;17.37;100.00;102058.66;4977712;28;47667;-76
2022/05/26 04:57:09;;;;;;;;;1.00;1.00;;;;;17.39;100.00;102057.75;4988404;28;45280;-76
2022/05/26 04:59:35;;;;;;;;;2.00;2.00;;;;;17.40;100.00;102069.31;4984147;28;45504;-76
2022/05/26 05:02:00;;;;;;;;;1.00;1.00;;;;;17.40;100.00;102080.00;4978112;28;45334;-78
2022/05/26 05:04:26;;;;;;;;;1.00;1.00;;;;;17.41;100.00;102073.78;4976730;28;46421;-76
2022/05/26 05:06:53;;;;;;;;;3.00;2.00;;;;;17.41;100.00;102073.78;4980608;28;57022;-77
2022/05/26 05:09:18;;;;;;;;;3.67;1.00;;;;;17.41;100.00;102074.66;4985922;28;45544;-77
2022/05/26 05:11:44;;;;;;;;;3.67;1.00;;;;;17.43;100.00;102077.34;4987311;28;53201;-76
2022/05/26 05:14:10;;;;;;;;;4.00;1.00;;;;;17.44;100.00;102068.47;4977384;28;61012;-76
2022/05/26 05:16:47;;;;;;;;;4.00;1.67;;;;;17.45;100.00;102073.78;4977705;28;45468;-76
2022/05/26 05:19:15;;;;;;;;;0.33;0.33;;;;;17.46;100.00;102069.34;4977907;28;45457;-78
2022/05/26 05:21:55;;;;;;;;;1.67;1.33;;;;;17.50;100.00;102079.16;4978019;28;45403;-76
2022/05/26 05:24:27;;;;;;;;;2.33;1.00;;;;;17.54;100.00;102079.16;4977577;28;47590;-76
2022/05/26 05:26:57;;;;;;;;;3.00;1.00;;;;;17.56;100.00;102079.16;4977959;28;45496;-77
2022/05/26 05:29:26;;;;;;;;;3.00;1.00;;;;;17.59;100.00;102076.50;4976388;28;45484;-76
2022/05/26 05:32:03;;;;;;;;;2.00;1.00;;;;;17.61;100.00;102084.50;4988777;28;45479;-77
2022/05/26 05:34:44;;;;;;;;;0.00;0.00;;;;;17.63;100.00;102085.38;4979106;28;47488;-76
2022/05/26 05:37:10;;;;;;;;;4.00;1.00;;;;;17.65;100.00;102083.63;4985005;28;45474;-76
2022/05/26 05:39:35;;;;;;;;;1.00;1.00;;;;;17.65;100.00;102087.19;4972340;28;45283;-76
2022/05/26 05:42:01;;;;;;;;;0.00;0.00;;;;;17.67;100.00;102089.84;4977771;28;45500;-75
2022/05/26 05:44:27;;;;;;;;;1.00;1.00;;;;;17.69;100.00;102096.13;4961014;28;47173;-77
2022/05/26 05:46:57;;;;;;;;;2.00;1.00;;;;;17.68;100.00;102100.53;4980630;28;62151;-76
2022/05/26 05:49:25;;;;;;;;;4.00;1.67;;;;;17.70;100.00;102090.78;4979546;28;45319;-78
2022/05/26 05:51:51;;;;;;;;;0.33;0.33;;;;;17.74;100.00;102103.28;4981259;28;45585;-75
2022/05/26 05:54:18;;;;;;;;;3.00;1.00;;;;;17.74;100.00;102102.41;4966252;28;47263;-76
2022/05/26 05:56:44;;;;;;;;;2.00;1.00;;;;;17.73;100.00;102105.94;4984171;28;45296;-77
2022/05/26 05:59:09;;;;;;;;;2.00;1.00;;;;;17.73;100.00;102104.16;4987734;28;45449;-77
2022/05/26 06:01:34;;;;;;;;;1.00;1.00;;;;;17.75;100.00;102115.75;4974161;28;45649;-76
2022/05/26 06:04:00;;;;;;;;;1.00;1.00;;;;;17.78;100.00;102118.41;4983871;28;47348;-75
2022/05/26 06:06:26;;;;;;;;;1.00;1.00;;;;;17.82;100.00;102119.31;4989607;28;45585;-75
2022/05/26 06:08:51;;;;;;;;;2.00;1.00;;;;;17.85;100.00;102119.34;4980495;28;45903;-74
2022/05/26 06:11:16;;;;;;;;;0.00;0.00;;;;;17.86;100.00;102121.09;4978353;28;45506;-75
2022/05/26 06:13:44;;;;;;;;;2.33;0.00;;;;;17.88;100.00;102126.44;4983232;28;47593;-80
2022/05/26 06:16:11;;;;;;;;;1.00;1.00;;;;;17.89;100.00;102122.88;4980001;28;45354;-80
2022/05/26 06:18:37;;;;;;;;;3.67;0.00;;;;;17.89;100.00;102130.91;4975861;28;45286;-80
2022/05/26 06:21:06;;;;;;;;;3.33;1.00;;;;;17.92;100.00;102136.25;4981280;28;48497;-81
2022/05/26 06:23:33;;;;;;;;;1.67;1.00;;;;;17.94;100.00;102147.81;4968620;28;47859;-79
2022/05/26 06:25:59;;;;;;;;;1.00;1.00;;;;;17.94;100.00;102145.16;4977133;28;45476;-78
2022/05/26 06:31:17;;;;;;;;;2.00;0.00;;;;;17.94;100.00;102142.47;4961695;28;45472;-78
2022/05/26 06:39:27;;;;;;;;;0.00;0.00;;;;;18.08;100.00;102159.44;4931476;28;45992;-78
2022/05/26 06:42:07;;;;;;;;;0.00;0.00;;;;;18.13;100.00;102159.44;4969835;28;45312;-79
2022/05/26 06:44:39;;;;;;;;;1.33;0.00;;;;;18.21;100.00;102171.91;4977929;28;46794;-78
2022/05/26 06:47:07;;;;;;;;;0.00;0.00;;;;;18.28;100.00;102171.06;4979994;28;45274;-78
2022/05/26 06:49:34;;;;;;;;;3.33;0.67;;;;;18.32;100.00;102161.22;4979813;28;45442;-79
2022/05/26 06:52:00;;;;;;;;;3.00;1.00;;;;;18.35;100.00;102161.25;4984368;28;45316;-78
2022/05/26 06:54:30;;;;;;;;;0.00;0.00;;;;;18.35;100.00;102173.72;4992345;28;47840;-78
2022/05/26 06:56:55;;;;;;;;;1.00;1.00;;;;;18.30;100.00;102171.94;4978514;28;45422;-78
2022/05/26 06:59:20;;;;;;;;;1.00;1.00;;;;;18.28;100.00;102187.09;4983303;28;54878;-79
2022/05/26 07:01:46;;;;;;;;;0.00;0.00;;;;;18.22;100.00;102179.06;4978429;28;54494;-79
2022/05/26 07:04:11;;;;;;;;;0.00;0.00;;;;;18.22;100.00;102187.09;4985537;28;47580;-78
2022/05/26 07:06:36;;;;;;;;;0.00;0.00;;;;;18.24;100.00;102187.97;4975804;28;45437;-77
2022/05/26 07:09:02;;;;;;;;;0.00;0.00;;;;;18.24;100.00;102187.09;4978384;28;55240;-77
2022/05/26 07:11:28;;;;;;;;;1.67;1.00;;;;;18.23;100.00;102183.53;4968425;28;45455;-78
2022/05/26 07:13:53;;;;;;;;;0.00;0.00;;;;;18.23;100.00;102188.88;4990015;28;65289;-77
2022/05/26 07:16:19;;;;;;;;;1.33;0.00;;;;;18.21;100.00;102184.41;4979827;28;45457;-78
2022/05/26 07:18:45;;;;;;;;;2.00;1.00;;;;;18.13;100.00;102186.19;4979990;28;57165;-78
2022/05/26 07:21:11;;;;;;;;;0.00;0.00;;;;;18.05;100.00;102186.16;4985988;28;45607;-79
2022/05/26 07:23:36;;;;;;;;;1.00;0.00;;;;;18.06;100.00;102194.19;4962041;28;46586;-77
2022/05/26 07:26:06;;;;;;;;;0.00;0.00;;;;;18.20;100.00;102188.84;4976340;28;59172;-79
2022/05/26 07:28:33;;;;;;;;;2.00;0.00;;;;;18.32;100.00;102194.22;4979313;28;45934;-79
2022/05/26 07:30:59;;;;;;;;;2.00;0.67;;;;;18.46;100.00;102193.34;4979444;28;45627;-80
2022/05/26 07:33:24;;;;;;;;;1.67;1.67;;;;;18.53;100.00;102197.78;4977271;28;63448;-78
2022/05/26 07:35:49;;;;;;;;;1.00;1.00;;;;;18.58;100.00;102207.59;4981209;28;57198;-79
2022/05/26 07:41:16;;;;;;;;;1.67;1.00;;;;;18.50;100.00;102235.25;4978299;28;45263;-78
2022/05/26 07:43:43;;;;;;;;;4.00;4.00;;;;;18.38;100.00;102224.56;4979943;28;46587;-79
2022/05/26 07:46:10;;;;;;;;;4.67;4.67;;;;;18.32;100.00;102231.69;4970795;28;45405;-77
2022/05/26 07:48:35;;;;;;;;;3.00;3.00;;;;;18.26;100.00;102236.09;4979128;28;45478;-79
2022/05/26 07:51:01;;;;;;;;;4.67;4.67;;;;;18.17;100.00;102233.44;4979579;28;45499;-79
2022/05/26 07:53:26;;;;;;;;;6.00;4.33;;;;;18.06;100.00;102241.41;4989743;28;62630;-80
2022/05/26 07:55:51;;;;;;;;;2.33;2.33;;;;;17.97;100.00;102246.72;4979690;28;60004;-80
2022/05/26 07:58:17;;;;;;;;;6.00;5.00;;;;;17.92;100.00;102241.38;4978335;28;56111;-81
2022/05/26 08:00:42;;;;;;;;;5.00;5.00;;;;;17.88;100.00;102246.69;4979098;28;52905;-83
2022/05/26 08:03:08;;;;;;;;;5.00;4.00;;;;;17.79;100.00;102253.81;4960517;28;47398;-80
2022/05/26 08:05:34;;;;;;;;;6.00;4.67;;;;;17.75;100.00;102256.47;4973657;28;45708;-80
2022/05/26 08:07:59;;;;;;;;;5.33;5.00;;;;;17.72;100.00;102251.06;4986288;28;45396;-80
2022/05/26 08:10:25;;;;;;;;;7.67;4.00;;;;;17.70;100.00;102258.19;4963116;28;45560;-80
2022/05/26 08:12:50;;;;;;;;;4.00;4.00;;;;;17.71;100.00;102260.84;4977937;28;46773;-81
2022/05/26 08:15:16;;;;;;;;;3.00;3.00;;;;;17.72;100.00;102253.72;4977831;28;45481;-78
2022/05/26 08:17:41;;;;;;;;;5.00;3.33;;;;;17.74;100.00;102255.56;4988722;28;45300;-76
2022/05/26 08:20:08;;;;;;;;;8.00;6.67;;;;;17.72;100.00;102254.66;4987610;28;55546;-78
2022/05/26 08:22:33;;;;;;;;;7.67;6.00;;;;;17.74;100.00;102258.25;4982807;28;46516;-78
2022/05/26 08:24:59;;;;;;;;;7.00;5.00;;;;;17.82;100.00;102262.72;4980597;28;57406;-84
2022/05/26 08:27:25;;;;;;;;;6.00;4.67;;;;;17.90;100.00;102256.50;4960846;28;45539;-83
2022/05/26 08:29:54;;;;;;;;;3.00;3.00;;;;;18.01;100.00;102254.78;4991086;28;45338;-77
2022/05/26 08:32:21;;;;;;;;;4.00;4.00;;;;;18.14;100.00;102263.69;4988343;28;45913;-78
2022/05/26 08:34:47;;;;;;;;;4.67;4.00;;;;;18.22;100.00;102261.94;4987715;28;45608;-78
2022/05/26 08:37:18;;;;;;;;;8.00;7.00;;;;;18.30;100.00;102259.28;4986203;28;45470;-76
2022/05/26 08:39:43;;;;;;;;;5.00;5.00;;;;;18.41;100.00;102259.31;4991662;28;45467;-77
2022/05/26 08:42:23;;;;;;;;;5.00;3.00;;;;;18.47;100.00;102260.19;4984123;28;46534;-78
2022/05/26 08:44:49;;;;;;;;;5.33;4.67;;;;;18.56;100.00;102256.66;4965592;28;45398;-79
2022/05/26 08:47:20;;;;;;;;;4.67;4.33;;;;;18.66;100.00;102257.56;4983675;28;45235;-78
2022/05/26 08:50:08;;;;;;;;;5.00;5.00;;;;;18.74;100.00;102262.03;4974140;28;45328;-79
2022/05/26 08:52:45;;;;;;;;;3.33;3.33;;;;;18.76;100.00;102262.03;4980931;28;46591;-76
2022/05/26 08:55:19;;;;;;;;;6.33;4.00;;;;;18.68;100.00;102264.69;4969603;28;45584;-75
2022/05/26 08:57:54;;;;;;;;;4.00;4.00;;;;;18.61;100.00;102275.38;4977357;28;45321;-73
2022/05/26 09:00:22;;;;;;;;;3.33;3.33;;;;;18.59;100.00;102267.38;4983900;28;45652;-71
2022/05/26 09:02:56;;;;;;;;;8.67;6.33;;;;;18.65;100.00;102271.81;5084749;23;46705;-76
2022/05/26 09:05:22;;;;;;;;;4.00;4.00;;;;;18.74;100.00;102274.50;4989615;28;45532;-72
2022/05/26 09:13:33;;;;;;;;;6.00;4.33;;;;;18.92;100.00;102276.31;4989525;28;46317;-74
2022/05/26 09:15:59;;;;;;;;;3.00;3.00;;;;;19.01;100.00;102278.97;4993034;28;45433;-73
2022/05/26 09:18:25;;;;;;;;;8.67;6.00;;;;;19.10;100.00;102281.66;4993315;28;45473;-72
2022/05/26 09:20:51;;;;;;;;;4.00;3.00;;;;;19.21;100.00;102287.88;4992595;28;45508;-73
2022/05/26 09:23:28;;;;;;;;;5.00;3.67;;;;;19.24;100.00;102287.88;4999298;28;45761;-72
2022/05/26 09:25:54;;;;;;;;;3.00;3.00;;;;;19.33;100.00;102290.56;4991334;28;45762;-72
2022/05/26 09:28:28;;;;;;;;;3.67;3.00;;;;;19.37;100.00;102292.31;4992987;28;45588;-72
2022/05/26 09:30:53;;;;;;;;;5.67;5.33;;;;;19.40;100.00;102295.91;4993478;28;45554;-73
2022/05/26 09:33:27;;;;;;;;;5.33;4.00;;;;;19.43;100.00;102296.75;4978190;28;46833;-72
2022/05/26 09:35:53;;;;;;;;;10.00;6.67;;;;;19.41;100.00;102301.25;4989026;28;45531;-73
2022/05/26 09:38:19;;;;;;;;;3.33;2.33;;;;;19.45;100.00;102305.69;4990800;28;49746;-73
2022/05/26 09:40:46;;;;;;;;;4.00;4.00;;;;;19.52;100.00;102304.78;4992858;28;45517;-72
2022/05/26 09:43:25;;;;;;;;;2.33;2.33;;;;;19.57;100.00;102305.66;4967210;28;47295;-71
2022/05/26 09:45:56;;;;;;;;;3.33;2.33;;;;;19.52;100.00;102307.47;4999008;28;45647;-71
2022/05/26 09:48:29;;;;;;;;;3.00;2.00;;;;;19.56;100.00;102308.34;4992618;28;45524;-72
2022/05/26 09:51:15;;;;;;;;;1.67;1.67;;;;;19.79;100.00;102313.66;4987709;28;45579;-72
2022/05/26 09:53:45;;;;;;;;;3.33;3.33;;;;;19.91;100.00;102302.00;4990338;28;45661;-72
2022/05/26 09:56:13;;;;;;;;;5.33;4.00;;;;;19.96;100.00;102313.59;4973696;28;45758;-72
2022/05/26 09:58:41;;;;;;;;;2.67;2.67;;;;;19.99;100.00;102309.13;4993803;28;45500;-72
2022/05/26 10:01:21;;;;;;;;;2.00;2.00;;;;;19.96;100.00;102309.13;4992298;28;45484;-72
2022/05/26 10:04:20;;;;;;;;;1.00;1.00;;;;;19.97;100.00;102313.59;4974467;28;46583;-72
2022/05/26 10:06:53;;;;;;;;;3.00;2.67;;;;;19.98;100.00;102318.06;4978868;28;45440;-71
2022/05/26 10:09:25;;;;;;;;;7.33;6.00;;;;;20.04;100.00;102314.47;4957297;28;45572;-73
2022/05/26 10:12:31;;;;;;;;;8.67;7.67;;;;;20.13;100.00;102309.97;4974527;28;45672;-73
2022/05/26 10:15:24;;;;;;;;;4.67;3.67;;;;;20.31;100.00;102317.00;4967371;28;46618;-73
2022/05/26 10:18:21;;;;;;;;;2.00;2.00;;;;;20.41;100.00;102323.22;4960071;28;45500;-73
2022/05/26 10:21:01;;;;;;;;;4.67;1.67;;;;;20.47;100.00;102316.97;4974383;28;45617;-72
2022/05/26 10:23:46;;;;;;;;;2.00;2.00;;;;;20.45;100.00;102322.28;4982755;28;45438;-73
2022/05/26 10:26:37;;;;;;;;;3.00;2.00;;;;;20.46;100.00;102315.16;4972133;28;46314;-73
2022/05/26 10:29:25;;;;;;;;;3.00;3.00;;;;;20.65;100.00;102314.13;4971676;28;45433;-73
2022/05/26 10:31:50;;;;;;;;;2.00;2.00;;;;;20.76;100.00;102317.63;4947919;28;45481;-73
2022/05/26 10:34:52;;;;;;;;;1.00;1.00;;;;;20.81;100.00;102314.91;4978201;28;45825;-72
2022/05/26 10:37:33;;;;;;;;;1.00;1.00;;;;;20.85;100.00;102314.00;4962514;28;46718;-73
2022/05/26 10:40:07;;;;;;;;;2.00;2.00;;;;;20.84;100.00;102310.41;4949728;28;46948;-76
2022/05/26 10:42:59;;;;;;;;;1.33;1.33;;;;;20.89;100.00;102305.91;4969551;28;45436;-72
2022/05/26 10:45:36;;;;;;;;;3.00;1.67;;;;;21.03;100.00;102311.16;4967741;28;45549;-75
2022/05/26 10:48:10;;;;;;;;;3.67;2.00;;;;;21.14;100.00;102319.09;4967076;28;47662;-74
2022/05/26 10:51:00;;;;;;;;;1.33;1.33;;;;;21.22;100.00;102309.19;4967803;28;45449;-77
2022/05/26 10:54:16;;;;;;;;;1.00;1.00;;;;;21.30;100.00;102312.72;4953880;28;45505;-75
2022/05/26 10:56:47;;;;;;;;;1.33;0.00;;;;;21.40;100.00;102313.50;4913841;28;45532;-75
2022/05/26 10:59:15;;;;;;;;;3.00;1.00;;;;;21.28;100.00;102313.63;4950881;28;47570;-74
2022/05/26 11:01:45;;;;;;;;;1.00;1.00;;;;;21.05;100.00;102321.91;4966473;28;45547;-75
2022/05/26 11:04:23;;;;;;;;;3.00;2.00;;;;;20.84;100.00;102312.22;4994270;28;45506;-76
2022/05/26 11:06:51;;;;;;;;;3.33;1.00;;;;;20.67;100.00;102315.03;4987768;28;45693;-75
2022/05/26 11:09:34;;;;;;;;;2.00;1.00;;;;;20.60;100.00;102324.91;4987424;28;46846;-76
2022/05/26 11:12:01;;;;;;;;;1.00;1.00;;;;;20.60;100.00;102324.00;4988038;28;45793;-76
2022/05/26 11:17:38;;;;;;;;;5.33;1.33;;;;;20.79;100.00;102308.69;4999976;28;45479;-77
2022/05/26 11:20:09;;;;;;;;;2.67;2.33;;;;;20.93;100.00;102314.81;4991387;28;46592;-76
2022/05/26 11:22:34;;;;;;;;;2.00;1.00;;;;;21.06;100.00;102302.19;4988280;28;45677;-76
2022/05/26 11:25:00;;;;;;;;;2.00;1.00;;;;;21.11;100.00;102301.25;4990392;28;48657;-76
2022/05/26 11:27:35;;;;;;;;;1.67;0.33;;;;;21.09;100.00;102307.50;4993397;28;45686;-76
2022/05/26 11:36:07;;;;;;;;;2.33;1.67;;;;;21.25;100.00;102301.09;4992558;28;46265;-74
2022/05/26 11:38:25;;;;;;;;;6.67;6.67;;;;;21.62;100.00;102293.56;4970860;28;45583;-73
2022/05/26 11:41:04;;;;;;;;;16.33;16.33;;;;;21.69;100.00;102297.09;4991150;28;45890;-73
2022/05/26 11:43:40;;;;;;;;;16.67;15.67;;;;;21.72;100.00;102286.28;4978230;28;45733;-73
2022/05/26 11:46:11;;;;;;;;;1.00;1.00;;;;;21.76;100.00;102284.44;4974496;28;45622;-73
2022/05/26 11:48:40;;;;;;;;;5.00;2.00;;;;;21.82;100.00;102281.69;4995580;28;45479;-75
2022/05/26 11:51:12;;;;;;;;;4.00;1.00;;;;;21.90;100.00;102282.50;4975268;28;45872;-72
2022/05/26 11:53:41;;;;;;;;;5.67;4.67;;;;;22.01;100.00;102280.53;4995634;28;45494;-74
2022/05/26 11:56:29;;;;;;;;;9.00;9.00;;;;;22.14;100.00;102284.88;4981978;28;45574;-74
2022/05/26 11:59:23;;;;;;;;;12.00;7.67;;;;;22.24;100.00;102282.94;4999278;28;45481;-74
2022/05/26 12:02:07;;;;;;;;;22.75;22.75;;;;;22.37;100.00;102278.25;4994166;28;46627;-73
2022/05/26 12:04:43;;;;;;;;;51.00;40.75;;;;;22.58;96.38;102271.66;4998092;28;45477;-74
2022/05/26 12:07:14;;;;;;;;;11.67;10.33;;;;;22.86;100.00;102280.19;5002589;28;45558;-75
2022/05/26 12:09:45;;;;;;;;;1.00;1.00;;;;;23.15;93.25;102274.31;5000413;28;45620;-75
2022/05/26 12:12:16;;;;;;;;;2.00;2.00;;;;;23.45;96.47;102279.13;4990480;28;47076;-76